Time;durP1;ratioP1;P1;durP2;ratioP2;P2;SDS_P1;SDS_P2;PMS_P1;PMS_P2;Temp;Humidity;BMP_temperature;BMP_pressure;BME280_temperature;BME280_humidity;BME280_pressure;Samples;Min_cycle;Max_cycle;Signal;HPM_P1;HPM_P2
2022/08/17 00:00:42;;;;;;;3.33;3.03;;;26.10;57.60;;;;;;5010479;28;91957;-79
2022/08/17 00:03:17;;;;;;;3.45;3.15;;;26.20;57.60;;;;;;5009734;27;93701;-79
2022/08/17 00:05:53;;;;;;;4.10;3.28;;;26.20;57.60;;;;;;5008866;28;92884;-79
2022/08/17 00:08:31;;;;;;;4.00;3.35;;;26.10;57.60;;;;;;5010925;28;92645;-79
2022/08/17 00:10:57;;;;;;;3.78;3.30;;;26.10;57.60;;;;;;5009251;28;92339;-79
2022/08/17 00:13:28;;;;;;;3.60;3.30;;;26.10;57.60;;;;;;5008959;28;93659;-79
2022/08/17 00:15:58;;;;;;;3.38;3.08;;;26.10;57.50;;;;;;5008156;27;92813;-79
2022/08/17 00:18:24;;;;;;;3.33;3.03;;;26.10;57.60;;;;;;5008113;28;92396;-79
2022/08/17 00:20:50;;;;;;;3.70;3.40;;;26.10;57.50;;;;;;5009127;28;92450;-80
2022/08/17 00:23:18;;;;;;;4.40;3.72;;;26.10;57.70;;;;;;5009633;28;93231;-79
2022/08/17 00:25:45;;;;;;;4.03;3.63;;;26.10;57.60;;;;;;5009039;28;93257;-79
2022/08/17 00:28:14;;;;;;;3.45;3.15;;;26.10;57.60;;;;;;5006097;28;92919;-79
2022/08/17 00:30:41;;;;;;;3.60;3.30;;;26.10;57.60;;;;;;5009552;28;93075;-79
2022/08/17 00:33:10;;;;;;;4.18;3.03;;;26.10;57.50;;;;;;5009367;28;94358;-78
2022/08/17 00:35:37;;;;;;;4.70;3.35;;;26.10;57.60;;;;;;5009559;28;92229;-79
2022/08/17 00:38:05;;;;;;;3.67;3.13;;;26.10;58.20;;;;;;5009766;28;92261;-79
2022/08/17 00:40:31;;;;;;;3.70;3.33;;;26.10;57.60;;;;;;5009565;28;92393;-79
2022/08/17 00:43:10;;;;;;;3.22;2.92;;;26.10;57.80;;;;;;5008659;28;93077;-79
2022/08/17 00:45:36;;;;;;;3.83;3.50;;;26.10;57.80;;;;;;5011229;28;93385;-78
2022/08/17 00:48:02;;;;;;;4.35;3.35;;;26.10;57.80;;;;;;5009121;28;92761;-79
2022/08/17 00:50:27;;;;;;;3.53;3.15;;;26.10;57.70;;;;;;5008599;28;92360;-79
2022/08/17 00:52:56;;;;;;;3.85;3.55;;;26.10;57.70;;;;;;5008997;28;93457;-79
2022/08/17 00:55:24;;;;;;;5.30;3.20;;;26.10;57.70;;;;;;5007701;28;93120;-79
2022/08/17 00:58:00;;;;;;;3.28;2.97;;;26.00;57.40;;;;;;5008425;28;92544;-79
2022/08/17 01:00:31;;;;;;;3.70;3.15;;;26.00;57.60;;;;;;5008093;27;92299;-78
2022/08/17 01:03:00;;;;;;;4.00;3.20;;;26.00;57.70;;;;;;5007441;28;93321;-79
2022/08/17 01:05:30;;;;;;;3.30;3.00;;;26.00;57.60;;;;;;5006666;28;92735;-79
2022/08/17 01:07:57;;;;;;;3.60;3.30;;;26.00;57.80;;;;;;5007606;28;92055;-79
2022/08/17 01:10:29;;;;;;;4.10;3.50;;;26.00;57.70;;;;;;5007114;28;91557;-79
2022/08/17 01:12:55;;;;;;;3.50;3.20;;;26.00;57.70;;;;;;5008104;28;93624;-79
2022/08/17 01:15:22;;;;;;;3.58;3.28;;;26.10;57.70;;;;;;5009091;28;92753;-79
2022/08/17 01:17:47;;;;;;;4.03;3.20;;;26.00;57.70;;;;;;5008825;28;93445;-79
2022/08/17 01:20:13;;;;;;;3.40;3.10;;;26.00;57.70;;;;;;5008695;28;92717;-79
2022/08/17 01:22:39;;;;;;;3.60;3.28;;;26.00;58.30;;;;;;5008349;28;93807;-79
2022/08/17 01:25:07;;;;;;;4.22;3.25;;;26.00;57.50;;;;;;5008341;28;93470;-79
2022/08/17 01:27:34;;;;;;;3.47;3.17;;;26.00;57.50;;;;;;5008933;28;92161;-79
2022/08/17 01:30:07;;;;;;;3.42;3.13;;;26.00;57.40;;;;;;5008315;27;92139;-79
2022/08/17 01:32:33;;;;;;;3.40;3.10;;;26.00;57.60;;;;;;5007501;27;93378;-80
2022/08/17 01:34:59;;;;;;;4.05;3.42;;;26.00;57.60;;;;;;5006669;28;94761;-79
2022/08/17 01:37:35;;;;;;;3.60;3.30;;;26.00;57.70;;;;;;5008608;28;92482;-79
2022/08/17 01:40:25;;;;;;;3.65;3.33;;;26.00;57.50;;;;;;5010749;28;92614;-79
2022/08/17 01:42:57;;;;;;;3.17;2.88;;;26.00;57.60;;;;;;5010213;27;93781;-79
2022/08/17 01:45:32;;;;;;;3.00;2.70;;;26.00;57.70;;;;;;5013684;28;93791;-79
2022/08/17 01:47:58;;;;;;;3.70;2.55;;;26.00;57.70;;;;;;5012248;27;92532;-79
2022/08/17 01:50:28;;;;;;;3.20;2.90;;;26.00;57.70;;;;;;5010598;27;91883;-79
2022/08/17 01:52:58;;;;;;;4.03;3.45;;;26.00;57.60;;;;;;5011902;28;92659;-79
2022/08/17 01:55:30;;;;;;;3.30;3.00;;;26.00;57.70;;;;;;5011745;27;92961;-80
2022/08/17 01:57:56;;;;;;;3.58;3.28;;;26.00;57.70;;;;;;5011734;27;92907;-79
2022/08/17 02:00:22;;;;;;;3.50;3.20;;;26.00;57.70;;;;;;5010637;28;91464;-79
2022/08/17 02:02:48;;;;;;;3.08;2.80;;;25.90;57.60;;;;;;5011171;28;93278;-79
2022/08/17 02:05:13;;;;;;;2.78;2.58;;;26.00;57.40;;;;;;5010948;28;92793;-80
2022/08/17 02:07:39;;;;;;;3.50;3.20;;;26.00;57.60;;;;;;5009992;28;93129;-79
2022/08/17 02:10:07;;;;;;;3.45;3.15;;;26.00;57.60;;;;;;5011713;27;92632;-79
2022/08/17 02:12:34;;;;;;;3.13;2.83;;;25.90;57.50;;;;;;5026239;27;96620;-79
2022/08/17 02:14:59;;;;;;;3.17;2.97;;;26.00;57.70;;;;;;5010613;28;93400;-79
2022/08/17 02:17:25;;;;;;;3.17;2.95;;;25.90;57.60;;;;;;5011525;27;92037;-80
2022/08/17 02:19:51;;;;;;;3.70;3.35;;;26.00;57.60;;;;;;5012389;28;91954;-79
2022/08/17 02:22:17;;;;;;;3.60;3.30;;;25.90;57.70;;;;;;5010355;28;93709;-80
2022/08/17 02:24:43;;;;;;;2.97;2.78;;;26.00;57.60;;;;;;5010869;28;93636;-79
2022/08/17 02:27:09;;;;;;;3.40;3.10;;;25.90;57.60;;;;;;5010741;28;92097;-79
2022/08/17 02:29:34;;;;;;;4.00;3.00;;;26.00;57.60;;;;;;5012047;28;92719;-79
2022/08/17 02:32:00;;;;;;;2.90;2.70;;;25.90;57.60;;;;;;5010930;28;94227;-79
2022/08/17 02:34:26;;;;;;;4.53;2.97;;;25.90;57.60;;;;;;5010928;27;94032;-79
2022/08/17 02:36:52;;;;;;;3.33;3.03;;;25.90;57.60;;;;;;5011205;28;91988;-79
2022/08/17 02:39:18;;;;;;;4.40;3.50;;;25.90;57.80;;;;;;5010616;28;93118;-79
2022/08/17 02:41:44;;;;;;;3.30;3.00;;;25.90;57.80;;;;;;5010449;27;92722;-79
2022/08/17 02:44:10;;;;;;;3.03;2.78;;;25.90;57.90;;;;;;5010734;28;93891;-79
2022/08/17 02:46:36;;;;;;;3.67;3.28;;;25.90;57.70;;;;;;5013256;28;92140;-79
2022/08/17 02:49:03;;;;;;;3.17;2.88;;;25.90;57.80;;;;;;5010975;27;91919;-79
2022/08/17 02:51:28;;;;;;;3.25;2.95;;;25.90;57.90;;;;;;5009734;28;93151;-79
2022/08/17 02:53:54;;;;;;;3.58;3.28;;;25.90;57.70;;;;;;5010304;27;93294;-80
2022/08/17 02:56:20;;;;;;;3.30;3.00;;;25.90;57.80;;;;;;5010403;28;93656;-78
2022/08/17 02:58:45;;;;;;;3.05;2.83;;;25.90;57.90;;;;;;5010658;28;92422;-79
2022/08/17 03:01:11;;;;;;;2.97;2.72;;;25.90;57.60;;;;;;5010587;28;93507;-79
2022/08/17 03:03:38;;;;;;;3.30;3.00;;;25.90;57.80;;;;;;5009832;28;94912;-79
2022/08/17 03:06:05;;;;;;;3.30;3.00;;;25.80;57.80;;;;;;5010845;28;92340;-79
2022/08/17 03:08:30;;;;;;;3.58;3.28;;;25.90;57.90;;;;;;5010114;28;92633;-79
2022/08/17 03:10:56;;;;;;;3.50;3.20;;;25.80;58.00;;;;;;5010660;28;92430;-79
2022/08/17 03:13:22;;;;;;;3.40;3.00;;;25.80;57.90;;;;;;5010586;28;92284;-79
2022/08/17 03:15:47;;;;;;;3.33;2.78;;;25.80;57.90;;;;;;5008983;28;92718;-79
2022/08/17 03:18:16;;;;;;;3.38;2.95;;;25.80;57.90;;;;;;5009210;27;92327;-79
2022/08/17 03:20:42;;;;;;;3.50;3.20;;;25.80;57.80;;;;;;5009948;28;94395;-79
2022/08/17 03:23:08;;;;;;;3.50;3.20;;;25.80;57.90;;;;;;5009893;28;93452;-79
2022/08/17 03:25:37;;;;;;;3.10;2.83;;;25.90;57.80;;;;;;5010556;28;92232;-79
2022/08/17 03:28:03;;;;;;;;;;;25.80;57.80;;;;;;5010457;27;92656;-79
2022/08/17 03:30:29;;;;;;;3.20;2.90;;;25.80;57.90;;;;;;5011454;27;92672;-79
2022/08/17 03:32:58;;;;;;;3.05;2.75;;;25.80;57.70;;;;;;5009495;28;93514;-79
2022/08/17 03:35:35;;;;;;;3.60;3.20;;;25.80;57.60;;;;;;5010275;28;92565;-79
2022/08/17 03:38:01;;;;;;;3.60;3.28;;;25.80;57.90;;;;;;5010761;28;91524;-79
2022/08/17 03:40:27;;;;;;;3.30;3.00;;;25.80;57.60;;;;;;5010215;27;93316;-79
2022/08/17 03:42:53;;;;;;;3.22;2.92;;;25.80;57.80;;;;;;5008604;28;95751;-79
2022/08/17 03:56:41;;;;;;;3.35;3.05;;;25.80;57.90;;;;;;5007757;28;93664;-79
2022/08/17 03:56:42;;;;;;;3.42;3.13;;;25.80;57.50;;;;;;5009717;28;92525;-79
2022/08/17 03:59:17;;;;;;;3.20;2.90;;;25.80;57.90;;;;;;5010554;28;92497;-79
2022/08/17 04:01:49;;;;;;;3.38;3.05;;;25.80;57.90;;;;;;5008420;27;93400;-79
2022/08/17 04:04:15;;;;;;;3.13;2.85;;;25.80;57.90;;;;;;5009940;28;92347;-80
2022/08/17 04:06:41;;;;;;;3.25;2.95;;;25.80;57.70;;;;;;5009936;27;92295;-79
2022/08/17 04:09:07;;;;;;;3.22;2.92;;;25.80;58.00;;;;;;5009233;28;92104;-78
2022/08/17 04:11:34;;;;;;;3.00;2.80;;;25.80;58.00;;;;;;5008722;28;94050;-79
2022/08/17 04:14:00;;;;;;;3.13;2.80;;;25.70;57.90;;;;;;5010062;28;93819;-79
2022/08/17 04:16:25;;;;;;;2.90;2.70;;;25.80;57.80;;;;;;5008770;28;92260;-79
2022/08/17 04:18:51;;;;;;;3.55;2.88;;;25.70;57.80;;;;;;5009024;27;92277;-80
2022/08/17 04:21:18;;;;;;;3.25;2.95;;;25.70;57.80;;;;;;5009623;27;92563;-79
2022/08/17 04:23:44;;;;;;;3.50;3.20;;;25.70;58.40;;;;;;5008814;28;92423;-79
2022/08/17 04:26:11;;;;;;;2.95;2.65;;;25.80;57.80;;;;;;5011030;28;92561;-80
2022/08/17 04:28:37;;;;;;;3.08;2.78;;;25.80;57.80;;;;;;5009597;28;91964;-79
2022/08/17 04:31:03;;;;;;;3.08;2.78;;;25.80;57.70;;;;;;5009092;28;93768;-79
2022/08/17 04:33:29;;;;;;;3.13;2.83;;;25.70;57.80;;;;;;5010725;27;92837;-79
2022/08/17 04:35:59;;;;;;;2.97;2.70;;;25.70;57.80;;;;;;5008247;28;93830;-79
2022/08/17 04:38:27;;;;;;;3.20;3.00;;;25.80;58.00;;;;;;5009254;28;93353;-79
2022/08/17 04:43:40;;;;;;;3.40;3.00;;;25.70;57.70;;;;;;5008239;27;92402;-80
2022/08/17 04:46:09;;;;;;;3.40;3.08;;;25.70;57.70;;;;;;5009714;28;92120;-79
2022/08/17 04:48:43;;;;;;;3.25;2.95;;;25.80;57.70;;;;;;5010732;28;92461;-79
2022/08/17 04:51:10;;;;;;;3.13;2.83;;;25.70;57.70;;;;;;5008309;27;93329;-79
2022/08/17 04:53:37;;;;;;;3.40;3.10;;;25.70;57.80;;;;;;5008387;28;96914;-79
2022/08/17 04:56:03;;;;;;;3.28;2.97;;;25.70;57.90;;;;;;5009857;28;92370;-79
2022/08/17 04:58:28;;;;;;;3.10;2.90;;;25.70;57.80;;;;;;5009033;28;93224;-79
2022/08/17 05:00:54;;;;;;;3.00;2.80;;;25.70;57.80;;;;;;5007945;28;94600;-79
2022/08/17 05:03:19;;;;;;;2.92;2.70;;;25.70;57.70;;;;;;5008952;28;93630;-79
2022/08/17 05:05:48;;;;;;;3.20;3.00;;;25.70;57.80;;;;;;5008823;27;92618;-79
2022/08/17 05:08:15;;;;;;;3.10;2.85;;;25.70;57.80;;;;;;5009094;28;92309;-80
2022/08/17 05:10:41;;;;;;;3.20;2.90;;;25.70;57.70;;;;;;5008201;28;93371;-79
2022/08/17 05:13:14;;;;;;;3.95;3.55;;;25.70;57.70;;;;;;5008780;28;92784;-80
2022/08/17 05:15:40;;;;;;;2.80;2.60;;;25.70;57.70;;;;;;5013726;28;92701;-79
2022/08/17 05:18:07;;;;;;;3.13;2.85;;;25.70;57.70;;;;;;5027078;27;92063;-79
2022/08/17 05:20:34;;;;;;;3.13;2.90;;;25.70;57.80;;;;;;5012046;28;93142;-79
2022/08/17 05:23:05;;;;;;;2.92;2.72;;;25.70;57.60;;;;;;5013071;28;92320;-79
2022/08/17 05:25:33;;;;;;;3.00;2.75;;;25.70;57.60;;;;;;5011580;27;93180;-79
2022/08/17 05:27:59;;;;;;;3.17;2.88;;;25.70;57.70;;;;;;5012512;27;91856;-79
2022/08/17 05:30:25;;;;;;;2.63;2.42;;;25.70;58.00;;;;;;5011242;28;93338;-79
2022/08/17 05:33:00;;;;;;;3.15;2.83;;;25.70;58.00;;;;;;5011925;27;93278;-79
2022/08/17 05:35:28;;;;;;;2.78;2.58;;;25.70;57.70;;;;;;5012952;28;91935;-79
2022/08/17 05:37:54;;;;;;;3.33;3.03;;;25.70;57.80;;;;;;5010437;28;92180;-79
2022/08/17 05:40:20;;;;;;;3.33;3.03;;;25.70;57.80;;;;;;5011763;27;93149;-79
2022/08/17 05:42:49;;;;;;;3.40;3.10;;;25.70;57.90;;;;;;5011478;27;91817;-79
2022/08/17 05:45:18;;;;;;;3.33;3.03;;;25.70;57.80;;;;;;5010918;27;92087;-79
2022/08/17 05:47:45;;;;;;;3.53;3.22;;;25.70;57.90;;;;;;5010709;28;92434;-79
2022/08/17 05:50:31;;;;;;;3.22;2.92;;;25.70;57.70;;;;;;5011793;28;94128;-79
2022/08/17 05:52:59;;;;;;;2.83;2.63;;;25.70;57.80;;;;;;5010966;28;98415;-79
2022/08/17 05:55:55;;;;;;;3.13;2.93;;;25.70;58.00;;;;;;5012347;27;92756;-79
2022/08/17 05:58:37;;;;;;;3.10;2.80;;;25.70;57.90;;;;;;5012025;27;92116;-79
2022/08/17 06:01:12;;;;;;;3.33;3.03;;;25.70;57.70;;;;;;5010539;27;93213;-80
2022/08/17 06:04:10;;;;;;;3.03;2.80;;;25.70;57.60;;;;;;5012247;27;93301;-79
2022/08/17 06:06:41;;;;;;;3.30;3.00;;;25.70;57.90;;;;;;5010483;27;92607;-79
2022/08/17 06:09:06;;;;;;;3.80;3.50;;;25.70;57.90;;;;;;5011436;27;91843;-79
2022/08/17 06:11:36;;;;;;;2.78;2.58;;;25.70;57.70;;;;;;5011510;28;93340;-78
2022/08/17 06:14:20;;;;;;;3.17;2.97;;;25.70;57.70;;;;;;5011386;28;93255;-79
2022/08/17 06:16:53;;;;;;;3.70;3.38;;;25.70;57.70;;;;;;5011421;28;92922;-80
2022/08/17 06:19:29;;;;;;;6.68;3.15;;;25.70;57.80;;;;;;5012846;27;92745;-81
2022/08/17 06:21:55;;;;;;;4.07;3.60;;;25.70;57.60;;;;;;5013385;27;92400;-80
2022/08/17 06:24:30;;;;;;;6.45;5.20;;;25.70;57.60;;;;;;5012966;28;92559;-81
2022/08/17 06:27:17;;;;;;;10.27;5.85;;;25.70;58.80;;;;;;5014241;27;92443;-79
2022/08/17 06:30:06;;;;;;;8.68;5.68;;;25.70;58.00;;;;;;5013398;27;92515;-80
2022/08/17 06:32:37;;;;;;;11.93;5.18;;;25.60;56.90;;;;;;5014445;27;93111;-81
2022/08/17 06:35:09;;;;;;;11.80;6.10;;;25.70;56.50;;;;;;5015711;28;93430;-79
2022/08/17 06:37:52;;;;;;;10.25;6.35;;;25.70;56.10;;;;;;5015190;28;92151;-81
2022/08/17 06:40:20;;;;;;;7.32;6.40;;;25.70;56.40;;;;;;5015441;28;92320;-82
2022/08/17 06:43:18;;;;;;;9.23;7.20;;;25.70;56.20;;;;;;5015213;28;94408;-81
2022/08/17 06:46:06;;;;;;;8.40;7.30;;;25.70;56.00;;;;;;5010840;28;93781;-82
2022/08/17 06:49:06;;;;;;;8.32;6.75;;;25.60;56.40;;;;;;5012047;28;92175;-82
2022/08/17 06:51:52;;;;;;;9.73;7.70;;;25.70;56.60;;;;;;5010318;28;92456;-80
2022/08/17 06:54:38;;;;;;;12.82;7.97;;;25.70;56.30;;;;;;4933357;28;94933;-81
2022/08/17 06:57:13;;;;;;;10.43;8.15;;;25.70;56.00;;;;;;4860868;28;92863;-81
2022/08/17 07:00:05;;;;;;;10.27;8.50;;;25.80;55.90;;;;;;4876555;28;92451;-80
2022/08/17 07:02:58;;;;;;;9.30;8.43;;;25.80;55.60;;;;;;4876273;28;91908;-80
2022/08/17 07:05:31;;;;;;;11.15;8.60;;;25.70;55.70;;;;;;4876143;28;94177;-80
2022/08/17 07:08:03;;;;;;;10.57;8.32;;;25.70;56.10;;;;;;4876149;28;93844;-81
2022/08/17 07:11:03;;;;;;;9.60;8.60;;;25.60;56.40;;;;;;4875070;28;101160;-81
2022/08/17 07:13:52;;;;;;;10.05;8.27;;;25.60;56.60;;;;;;4836305;29;92122;-81
2022/08/17 07:16:45;;;;;;;11.10;8.65;;;25.60;57.40;;;;;;4834887;29;93668;-81
2022/08/17 07:19:15;;;;;;;13.63;9.02;;;25.60;57.60;;;;;;4817286;29;92694;-81
2022/08/17 07:21:57;;;;;;;9.23;8.25;;;25.60;58.20;;;;;;4817902;29;92530;-81
2022/08/17 07:24:38;;;;;;;9.43;8.38;;;25.50;58.10;;;;;;4801191;29;92572;-82
2022/08/17 07:27:11;;;;;;;9.18;8.30;;;25.50;58.40;;;;;;4817158;29;93286;-82
2022/08/17 07:29:52;;;;;;;16.15;8.48;;;25.40;58.60;;;;;;4817044;29;95166;-82
2022/08/17 07:32:25;;;;;;;10.50;9.20;;;25.40;58.90;;;;;;4849735;29;92654;-81
2022/08/17 07:35:28;;;;;;;10.57;8.25;;;25.50;58.80;;;;;;4895755;28;92297;-83
2022/08/17 07:38:06;;;;;;;9.85;8.13;;;25.50;59.00;;;;;;4922277;28;99229;-82
2022/08/17 07:40:47;;;;;;;191.50;41.53;;;25.50;59.20;;;;;;4920750;28;93896;-82
2022/08/17 07:43:15;;;;;;;149.02;36.20;;;25.60;59.50;;;;;;4919658;28;92565;-80
2022/08/17 07:48:51;;;;;;;70.95;21.13;;;25.50;60.10;;;;;;4860693;28;100785;-82
2022/08/17 07:51:30;;;;;;;49.75;16.65;;;25.40;60.20;;;;;;4920781;28;92405;-82
2022/08/17 07:54:23;;;;;;;36.00;13.88;;;25.40;60.50;;;;;;4920738;28;92304;-81
2022/08/17 07:56:57;;;;;;;26.48;12.38;;;25.50;60.70;;;;;;4975105;28;92694;-81
2022/08/17 07:59:27;;;;;;;24.42;10.40;;;25.40;60.80;;;;;;5001214;28;94174;-81
2022/08/17 08:02:04;;;;;;;22.63;10.13;;;25.40;61.30;;;;;;4999894;28;92100;-81
2022/08/17 08:04:38;;;;;;;15.95;10.48;;;25.30;61.50;;;;;;5000148;28;92954;-83
2022/08/17 08:07:11;;;;;;;19.27;10.65;;;25.30;61.80;;;;;;4999043;28;92390;-81
2022/08/17 08:09:43;;;;;;;16.70;10.77;;;25.30;61.30;;;;;;5000018;28;96962;-81
2022/08/17 08:12:32;;;;;;;17.77;10.25;;;25.30;61.30;;;;;;4998805;28;92884;-81
2022/08/17 08:15:16;;;;;;;11.43;8.43;;;25.40;62.00;;;;;;5005859;28;92570;-82
2022/08/17 08:17:47;;;;;;;12.55;9.65;;;25.30;62.70;;;;;;5011986;28;92424;-82
2022/08/17 08:20:13;;;;;;;11.02;8.77;;;25.30;62.80;;;;;;5013363;28;93709;-81
2022/08/17 08:22:54;;;;;;;13.27;8.93;;;25.30;63.40;;;;;;5013475;28;92914;-81
2022/08/17 08:25:23;;;;;;;11.48;9.18;;;25.20;63.60;;;;;;5012074;28;92443;-81
2022/08/17 08:27:49;;;;;;;;;;;25.20;63.60;;;;;;5012469;28;92388;-82
2022/08/17 08:30:20;;;;;;;9.50;8.50;;;25.20;63.00;;;;;;5013933;28;94472;-82
2022/08/17 08:33:20;;;;;;;9.57;8.68;;;25.20;63.00;;;;;;5013979;28;92592;-82
2022/08/17 08:36:07;;;;;;;13.55;8.88;;;25.10;63.00;;;;;;5030119;28;92583;-82
2022/08/17 08:39:00;;;;;;;9.63;8.63;;;25.20;63.10;;;;;;5030019;28;92517;-81
2022/08/17 08:41:28;;;;;;;9.93;8.70;;;25.20;63.40;;;;;;5028712;28;92742;-83
2022/08/17 08:44:18;;;;;;;9.50;8.43;;;25.20;64.90;;;;;;5030817;28;93685;-82
2022/08/17 08:47:17;;;;;;;11.85;9.27;;;25.10;64.50;;;;;;5030677;27;92838;-82
2022/08/17 08:49:57;;;;;;;11.38;8.30;;;25.10;64.50;;;;;;4942791;28;91874;-82
2022/08/17 08:52:41;;;;;;;10.32;8.77;;;25.10;64.70;;;;;;4944196;28;93140;-82
2022/08/17 08:55:20;;;;;;;9.65;8.63;;;25.10;64.80;;;;;;4943860;28;93413;-82
2022/08/17 08:57:59;;;;;;;11.65;8.00;;;25.10;64.80;;;;;;4947631;28;92968;-83
2022/08/17 09:00:26;;;;;;;8.93;8.13;;;25.10;64.90;;;;;;4943414;28;92024;-82
2022/08/17 09:03:39;;;;;;;8.98;8.10;;;25.00;64.90;;;;;;4945263;28;93583;-81
2022/08/17 09:06:25;;;;;;;8.65;7.85;;;25.00;64.50;;;;;;4912509;28;92821;-81
2022/08/17 09:09:08;;;;;;;8.82;7.18;;;25.10;63.80;;;;;;4914365;28;92039;-81
2022/08/17 09:12:12;;;;;;;8.38;7.57;;;25.10;64.40;;;;;;4913317;28;92648;-81
2022/08/17 09:14:49;;;;;;;11.48;7.78;;;25.10;64.70;;;;;;4894980;28;93497;-81
2022/08/17 09:17:26;;;;;;;9.07;7.68;;;25.10;64.90;;;;;;4830794;28;95622;-81
2022/08/17 09:20:00;;;;;;;8.70;7.80;;;25.10;65.70;;;;;;4895528;28;92366;-81
2022/08/17 09:22:47;;;;;;;10.77;8.13;;;25.20;65.60;;;;;;4896435;28;92665;-81
2022/08/17 09:25:25;;;;;;;12.40;7.47;;;25.20;65.50;;;;;;4902449;28;94369;-80
2022/08/17 09:28:15;;;;;;;9.13;7.47;;;25.20;66.20;;;;;;4954228;28;94275;-81
2022/08/17 09:30:51;;;;;;;9.80;7.75;;;25.10;65.30;;;;;;4954425;28;92712;-80
2022/08/17 09:33:25;;;;;;;9.52;8.27;;;25.10;65.50;;;;;;4954862;28;91982;-81
2022/08/17 09:36:14;;;;;;;9.73;8.13;;;25.20;65.50;;;;;;4953410;28;92744;-80
2022/08/17 09:38:58;;;;;;;8.60;7.85;;;25.20;65.60;;;;;;4933761;28;93012;-81
2022/08/17 09:41:27;;;;;;;12.88;7.90;;;25.20;65.00;;;;;;4935701;28;91916;-81
2022/08/17 09:44:23;;;;;;;9.63;8.23;;;25.20;64.80;;;;;;4994573;28;91895;-82
2022/08/17 09:46:52;;;;;;;9.85;8.07;;;25.20;64.40;;;;;;4991790;28;97349;-81
2022/08/17 09:49:29;;;;;;;10.47;8.50;;;25.20;64.60;;;;;;4991952;28;92824;-81
2022/08/17 09:52:06;;;;;;;10.85;8.18;;;25.10;64.30;;;;;;4990137;28;94008;-81
2022/08/17 09:54:34;;;;;;;9.85;8.90;;;25.20;64.50;;;;;;4992033;28;92561;-81
2022/08/17 09:57:06;;;;;;;11.48;8.40;;;25.20;64.80;;;;;;4991693;28;92817;-82
2022/08/17 09:59:39;;;;;;;10.23;9.20;;;25.10;64.60;;;;;;4993293;28;93684;-83
2022/08/17 10:02:24;;;;;;;11.18;9.20;;;25.10;65.10;;;;;;4977919;28;93012;-82
2022/08/17 10:05:12;;;;;;;10.68;9.68;;;25.10;65.30;;;;;;4994567;28;92836;-83
2022/08/17 10:08:08;;;;;;;9.97;8.80;;;25.00;65.20;;;;;;4993636;28;93582;-82
2022/08/17 10:10:45;;;;;;;10.32;8.73;;;25.00;65.30;;;;;;4993562;28;92733;-82
2022/08/17 10:13:23;;;;;;;9.98;9.00;;;25.00;65.30;;;;;;4994618;28;92774;-83
2022/08/17 10:16:10;;;;;;;10.82;9.73;;;25.00;65.00;;;;;;5004476;28;92647;-80
2022/08/17 10:18:48;;;;;;;11.98;9.55;;;25.00;64.90;;;;;;5014750;27;94677;-83
2022/08/17 10:27:00;;;;;;;9.75;8.75;;;25.10;64.40;;;;;;5014632;27;91921;-81
2022/08/17 10:29:40;;;;;;;10.27;9.27;;;25.10;64.40;;;;;;5015041;27;93082;-81
2022/08/17 10:32:10;;;;;;;10.52;9.48;;;25.20;63.90;;;;;;5015278;28;92497;-81
2022/08/17 10:35:08;;;;;;;10.27;8.57;;;25.10;63.60;;;;;;5015086;27;92002;-81
2022/08/17 10:37:36;;;;;;;10.10;9.10;;;25.10;63.10;;;;;;5012825;28;92048;-82
2022/08/17 10:40:31;;;;;;;10.07;8.27;;;25.10;62.40;;;;;;5012432;28;93138;-81
2022/08/17 10:43:16;;;;;;;10.35;9.45;;;25.00;62.90;;;;;;5011927;28;92430;-81
2022/08/17 10:46:07;;;;;;;11.45;8.55;;;25.00;62.90;;;;;;5010903;28;93157;-81
2022/08/17 10:48:36;;;;;;;9.40;8.50;;;25.00;63.60;;;;;;4961158;28;92056;-81
2022/08/17 10:51:07;;;;;;;10.80;9.07;;;25.00;63.30;;;;;;4961375;28;92865;-80
2022/08/17 10:53:37;;;;;;;12.93;8.38;;;24.90;63.00;;;;;;4961546;28;92847;-81
2022/08/17 10:56:16;;;;;;;10.07;9.07;;;25.00;62.50;;;;;;4959782;28;92204;-81
2022/08/17 10:58:52;;;;;;;9.45;8.50;;;24.90;62.70;;;;;;4960569;28;92907;-81
2022/08/17 11:01:38;;;;;;;15.88;9.38;;;24.90;62.70;;;;;;4962047;28;93716;-83
2022/08/17 11:04:10;;;;;;;9.60;8.60;;;25.00;62.80;;;;;;4954164;28;96477;-82
2022/08/17 11:06:45;;;;;;;11.20;8.55;;;25.00;63.20;;;;;;4961754;28;92617;-82
2022/08/17 11:09:42;;;;;;;12.85;9.38;;;25.00;63.50;;;;;;4962313;28;92031;-82
2022/08/17 11:12:37;;;;;;;12.63;9.50;;;25.00;63.30;;;;;;4962697;28;94731;-82
2022/08/17 11:15:19;;;;;;;12.88;9.60;;;24.90;63.60;;;;;;4972053;28;95981;-82
2022/08/17 11:18:00;;;;;;;18.15;8.98;;;24.90;63.50;;;;;;4972637;28;92024;-82
2022/08/17 11:20:47;;;;;;;27.77;9.70;;;25.00;63.60;;;;;;4972639;28;92920;-81
2022/08/17 11:23:39;;;;;;;19.15;9.90;;;25.00;64.60;;;;;;4972102;28;93589;-82
2022/08/17 11:26:25;;;;;;;21.23;9.95;;;25.00;64.70;;;;;;4998240;28;97359;-82
2022/08/17 11:29:00;;;;;;;20.80;9.73;;;24.90;65.50;;;;;;5013318;28;92213;-82
2022/08/17 11:31:39;;;;;;;25.95;9.73;;;25.00;65.50;;;;;;5013110;28;91740;-83
2022/08/17 11:34:08;;;;;;;22.95;10.48;;;25.00;65.00;;;;;;5011879;28;96568;-83
2022/08/17 11:36:46;;;;;;;30.20;9.90;;;24.90;65.50;;;;;;5011467;28;92936;-83
2022/08/17 11:39:35;;;;;;;24.90;10.95;;;24.90;65.60;;;;;;5011812;28;93501;-83
2022/08/17 11:42:08;;;;;;;26.05;10.68;;;24.90;65.80;;;;;;4913124;28;92258;-83
2022/08/17 11:44:51;;;;;;;15.65;10.90;;;24.90;66.10;;;;;;4912073;28;95281;-83
2022/08/17 11:54:08;;;;;;;14.15;10.05;;;25.00;66.80;;;;;;4856352;29;92020;-83
2022/08/17 11:56:45;;;;;;;13.02;10.20;;;24.90;66.70;;;;;;4855804;28;92710;-83
2022/08/17 11:59:42;;;;;;;22.52;10.48;;;25.00;67.10;;;;;;4856384;29;93304;-83
2022/08/17 12:02:34;;;;;;;11.45;10.27;;;25.10;67.00;;;;;;4861031;28;92483;-83
2022/08/17 12:05:18;;;;;;;14.85;9.85;;;25.00;67.50;;;;;;4859010;28;95270;-83
2022/08/17 12:07:47;;;;;;;11.88;9.90;;;25.00;67.10;;;;;;4875431;28;94962;-83
2022/08/17 12:10:30;;;;;;;11.00;9.88;;;25.10;66.90;;;;;;4858088;28;94379;-83
2022/08/17 12:12:58;;;;;;;11.05;9.80;;;25.10;67.20;;;;;;4855561;29;92361;-83
2022/08/17 12:15:33;;;;;;;11.82;10.70;;;25.00;67.40;;;;;;4857012;29;92303;-82
2022/08/17 12:17:59;;;;;;;11.57;10.48;;;25.00;66.90;;;;;;4856914;28;93506;-83
2022/08/17 12:20:36;;;;;;;12.63;10.65;;;25.00;66.60;;;;;;4894617;28;93142;-83
2022/08/17 12:23:18;;;;;;;12.07;10.95;;;25.00;66.80;;;;;;4912286;28;92304;-83
2022/08/17 12:25:55;;;;;;;11.80;10.32;;;25.00;67.50;;;;;;4920973;28;91759;-83
2022/08/17 12:28:30;;;;;;;11.95;10.75;;;25.10;67.40;;;;;;4958262;28;97166;-83
2022/08/17 12:31:02;;;;;;;12.07;10.80;;;25.10;67.30;;;;;;4959482;28;93094;-83
2022/08/17 12:33:28;;;;;;;12.23;10.98;;;25.20;67.80;;;;;;4960543;28;93195;-83
2022/08/17 12:35:57;;;;;;;11.70;10.55;;;25.20;67.70;;;;;;4962191;28;92110;-82
2022/08/17 12:38:23;;;;;;;13.95;10.68;;;25.20;66.80;;;;;;4981276;28;93709;-83
2022/08/17 12:40:55;;;;;;;11.70;10.50;;;25.20;66.80;;;;;;5010363;28;92971;-83
2022/08/17 12:43:25;;;;;;;12.10;10.82;;;25.20;66.70;;;;;;5012767;28;91954;-83
2022/08/17 12:45:59;;;;;;;12.15;10.85;;;25.20;66.10;;;;;;5014208;27;92550;-83
2022/08/17 12:48:28;;;;;;;12.10;10.90;;;25.20;66.50;;;;;;5013879;28;92456;-82
2022/08/17 12:51:02;;;;;;;11.70;10.60;;;25.20;66.70;;;;;;5013452;28;96728;-83
2022/08/17 12:53:31;;;;;;;12.73;11.52;;;25.20;66.60;;;;;;5012785;28;92440;-82
2022/08/17 12:55:58;;;;;;;11.52;10.43;;;25.20;65.70;;;;;;5013677;28;92312;-83
2022/08/17 12:58:31;;;;;;;11.75;10.65;;;25.20;65.70;;;;;;5012481;27;93035;-83
2022/08/17 13:01:03;;;;;;;12.15;11.00;;;25.20;66.10;;;;;;5012828;28;97753;-83
2022/08/17 13:03:35;;;;;;;14.30;11.85;;;25.20;65.90;;;;;;5012474;27;92163;-83
2022/08/17 13:06:05;;;;;;;11.63;10.52;;;25.20;65.90;;;;;;5011784;27;92566;-83
2022/08/17 13:08:35;;;;;;;13.20;10.98;;;25.30;65.40;;;;;;5012262;27;93466;-84
2022/08/17 13:11:08;;;;;;;12.77;11.55;;;25.40;65.00;;;;;;5012990;28;92881;-82
2022/08/17 13:13:37;;;;;;;12.65;11.40;;;25.50;65.20;;;;;;5013843;28;92566;-83
2022/08/17 13:16:15;;;;;;;11.60;10.52;;;25.40;64.00;;;;;;5013612;27;91478;-83
2022/08/17 13:18:46;;;;;;;12.20;10.90;;;25.40;63.10;;;;;;4999081;28;97097;-83
2022/08/17 13:21:22;;;;;;;12.55;11.35;;;25.40;62.70;;;;;;5028329;28;96307;-83
2022/08/17 13:24:10;;;;;;;13.57;11.75;;;25.30;62.40;;;;;;5012216;27;93085;-82
2022/08/17 13:26:53;;;;;;;14.25;12.85;;;25.30;62.40;;;;;;5012676;27;91965;-84
2022/08/17 13:29:28;;;;;;;13.18;11.70;;;25.30;63.30;;;;;;5013176;28;93686;-83
2022/08/17 13:32:02;;;;;;;11.70;10.52;;;25.30;63.20;;;;;;5012883;28;93332;-83
2022/08/17 13:34:28;;;;;;;12.23;10.55;;;25.30;63.50;;;;;;5014318;28;92750;-83
2022/08/17 13:37:25;;;;;;;12.20;10.98;;;25.40;63.50;;;;;;5015705;28;93047;-83
2022/08/17 13:40:08;;;;;;;11.38;10.20;;;25.40;63.50;;;;;;5014906;28;93723;-83
2022/08/17 13:42:43;;;;;;;11.52;10.32;;;25.40;63.10;;;;;;5014807;27;93376;-84